QFA84 YPDN-WIII
Flight info
| Callsign | QFA84 |
|---|---|
| Flight time | N/A |
| Altitude | 38000 |
| Route | JULIE Q320 VIROB Q200 KILIK A458 KPG T20 OLRET/N0471F400 T20 OKANG T4 FARIZ T6 KURUS |
| Aircraft | A333/H-SDE3GHIJ2J3J5M1RVWXY/LB2D1 |
Departure
| Time | 2026-05-09 00:47 |
|---|---|
| Airport | Darwin International Airport / RAAF Darwin (YPDN) |
Arrival
| Time | N/A |
|---|---|
| Airport | Soekarno-Hatta International Airport (WIII) |
| Time | Latitude | Longitude | Altitude | Speed | Heading |
|---|---|---|---|---|---|
| 2026-05-09 00:38 | -12.40711 | 130.87511 | 93 ft | 0 kts | 90° |
| 2026-05-09 00:40 | -12.40710 | 130.87497 | 93 ft | 2 kts | 98° |
| 2026-05-09 00:40 | -12.40707 | 130.87480 | 94 ft | 2 kts | 123° |
| 2026-05-09 00:41 | -12.40684 | 130.87468 | 92 ft | 0 kts | 181° |
| 2026-05-09 00:41 | -12.40699 | 130.87468 | 91 ft | 2 kts | 180° |
| 2026-05-09 00:41 | -12.40702 | 130.87468 | 92 ft | 0 kts | 180° |
| 2026-05-09 00:43 | -12.40703 | 130.87468 | 92 ft | 3 kts | 180° |
| 2026-05-09 00:43 | -12.40773 | 130.87468 | 96 ft | 11 kts | 178° |
| 2026-05-09 00:44 | -12.40857 | 130.87519 | 98 ft | 22 kts | 137° |
| 2026-05-09 00:44 | -12.40970 | 130.87608 | 101 ft | 16 kts | 179° |
| 2026-05-09 00:44 | -12.41073 | 130.87557 | 103 ft | 12 kts | 246° |
| 2026-05-09 00:44 | -12.41065 | 130.87469 | 103 ft | 16 kts | 286° |
| 2026-05-09 00:45 | -12.41015 | 130.87318 | 103 ft | 19 kts | 289° |
| 2026-05-09 00:45 | -12.40973 | 130.87194 | 103 ft | 17 kts | 289° |
| 2026-05-09 00:45 | -12.40894 | 130.87137 | 103 ft | 11 kts | 332° |
| 2026-05-09 00:45 | -12.40863 | 130.87091 | 104 ft | 5 kts | 261° |
| 2026-05-09 00:46 | -12.40886 | 130.87003 | 105 ft | 22 kts | 249° |
| 2026-05-09 00:46 | -12.40995 | 130.86938 | 107 ft | 19 kts | 183° |
| 2026-05-09 00:46 | -12.41100 | 130.87019 | 106 ft | 25 kts | 112° |
| 2026-05-09 00:46 | -12.41247 | 130.87444 | 106 ft | 101 kts | 108° |
| 2026-05-09 00:47 | -12.41553 | 130.88359 | 104 ft | 169 kts | 110° |
| 2026-05-09 00:47 | -12.41948 | 130.89599 | 712 ft | 192 kts | 110° |
| 2026-05-09 00:47 | -12.42276 | 130.90628 | 1494 ft | 183 kts | 105° |
| 2026-05-09 00:47 | -12.42676 | 130.91961 | 1719 ft | 210 kts | 110° |
| 2026-05-09 00:48 | -12.43280 | 130.93434 | 2091 ft | 236 kts | 112° |
| 2026-05-09 00:48 | -12.43856 | 130.95007 | 2941 ft | 238 kts | 105° |
| 2026-05-09 00:48 | -12.44318 | 130.96676 | 3582 ft | 250 kts | 105° |
| 2026-05-09 00:48 | -12.44869 | 130.98374 | 4450 ft | 251 kts | 109° |
| 2026-05-09 00:49 | -12.45247 | 131.00109 | 5073 ft | 258 kts | 86° |
| 2026-05-09 00:49 | -12.43806 | 131.03163 | 6415 ft | 267 kts | 43° |
| 2026-05-09 00:49 | -12.36170 | 131.04046 | 7995 ft | 290 kts | 2° |
| 2026-05-09 00:49 | -12.28931 | 131.01750 | 7986 ft | 300 kts | 311° |
| 2026-05-09 00:50 | -12.25943 | 130.93896 | 9474 ft | 293 kts | 293° |
| 2026-05-09 00:50 | -12.23188 | 130.85842 | 11677 ft | 326 kts | 292° |
| 2026-05-09 00:50 | -12.22765 | 130.75777 | 13281 ft | 379 kts | 272° |
| 2026-05-09 00:50 | -12.22781 | 130.64978 | 16292 ft | 385 kts | 272° |
| 2026-05-09 00:51 | -12.22753 | 130.53988 | 19322 ft | 391 kts | 278° |
| 2026-05-09 00:51 | -12.17959 | 130.43847 | 21559 ft | 406 kts | 296° |
| 2026-05-09 00:51 | -12.12570 | 130.33456 | 23648 ft | 421 kts | 296° |
| 2026-05-09 00:51 | -12.07023 | 130.22795 | 25539 ft | 429 kts | 296° |
| 2026-05-09 00:52 | -12.01344 | 130.11901 | 27383 ft | 438 kts | 296° |
| 2026-05-09 00:52 | -11.95552 | 130.00809 | 29169 ft | 448 kts | 296° |
| 2026-05-09 00:52 | -11.89716 | 129.89652 | 31098 ft | 446 kts | 296° |
| 2026-05-09 00:52 | -11.83927 | 129.78600 | 33266 ft | 437 kts | 296° |
| 2026-05-09 00:53 | -11.78225 | 129.67731 | 35167 ft | 431 kts | 297° |
| 2026-05-09 00:53 | -11.72491 | 129.57010 | 36817 ft | 428 kts | 298° |
| 2026-05-09 00:53 | -11.66644 | 129.46438 | 37974 ft | 434 kts | 300° |
| 2026-05-09 00:53 | -11.60568 | 129.35794 | 37974 ft | 429 kts | 300° |
| 2026-05-09 00:54 | -11.48067 | 129.14884 | 37974 ft | 432 kts | 302° |
| 2026-05-09 00:54 | -11.35060 | 128.94398 | 37964 ft | 433 kts | 303° |
| 2026-05-09 00:55 | -11.21406 | 128.74120 | 37963 ft | 434 kts | 304° |
| 2026-05-09 00:55 | -11.08114 | 128.53733 | 38041 ft | 434 kts | 281° |
| 2026-05-09 00:56 | -11.04732 | 128.24632 | 37963 ft | 437 kts | 280° |
| 2026-05-09 00:56 | -11.01061 | 127.95604 | 37972 ft | 437 kts | 280° |
| 2026-05-09 00:57 | -10.97938 | 127.71201 | 37972 ft | 436 kts | 279° |
| 2026-05-09 00:57 | -10.94795 | 127.46719 | 37970 ft | 435 kts | 279° |
| 2026-05-09 00:58 | -10.90182 | 127.11238 | 37974 ft | 435 kts | 278° |
| 2026-05-09 00:58 | -10.87041 | 126.86879 | 37982 ft | 434 kts | 278° |
| 2026-05-09 00:59 | -10.83875 | 126.62509 | 37972 ft | 433 kts | 277° |
| 2026-05-09 00:59 | -10.80690 | 126.38154 | 37978 ft | 434 kts | 278° |
| 2026-05-09 01:00 | -10.77500 | 126.13943 | 37972 ft | 434 kts | 278° |
| 2026-05-09 01:00 | -10.74256 | 125.89551 | 37986 ft | 435 kts | 278° |
| 2026-05-09 01:01 | -10.70981 | 125.65114 | 37979 ft | 436 kts | 278° |
| 2026-05-09 01:01 | -10.67706 | 125.40780 | 37977 ft | 437 kts | 278° |
| 2026-05-09 01:02 | -10.64397 | 125.16267 | 37984 ft | 437 kts | 278° |
| 2026-05-09 01:02 | -10.57207 | 124.92604 | 37974 ft | 439 kts | 285° |
| 2026-05-09 01:03 | -10.49542 | 124.69102 | 37977 ft | 441 kts | 286° |
| 2026-05-09 01:03 | -10.41770 | 124.45336 | 37971 ft | 442 kts | 287° |
| 2026-05-09 01:04 | -10.33956 | 124.21523 | 37961 ft | 445 kts | 287° |
| 2026-05-09 01:04 | -10.26095 | 123.97647 | 37959 ft | 446 kts | 287° |
| 2026-05-09 01:05 | -10.18184 | 123.73714 | 37947 ft | 448 kts | 288° |
| 2026-05-09 01:05 | -10.13880 | 123.49086 | 37948 ft | 447 kts | 277° |
| 2026-05-09 01:06 | -10.12070 | 123.36588 | 37943 ft | 448 kts | 277° |
| 2026-05-09 01:06 | -10.08442 | 123.11540 | 37945 ft | 449 kts | 278° |
| 2026-05-09 01:07 | -10.04799 | 122.86456 | 37950 ft | 449 kts | 278° |
| 2026-05-09 01:07 | -10.01137 | 122.61368 | 37955 ft | 449 kts | 278° |
| 2026-05-09 01:08 | -9.97474 | 122.36401 | 37953 ft | 450 kts | 278° |
| 2026-05-09 01:08 | -9.93763 | 122.11244 | 37959 ft | 450 kts | 278° |
| 2026-05-09 01:09 | -9.90044 | 121.86131 | 37955 ft | 450 kts | 277° |
| 2026-05-09 01:09 | -9.86337 | 121.61185 | 37965 ft | 450 kts | 277° |
| 2026-05-09 01:09 | -9.83693 | 121.48792 | 37956 ft | 453 kts | 290° |
| 2026-05-09 01:10 | -9.79593 | 121.36706 | 37959 ft | 453 kts | 289° |
| 2026-05-09 01:10 | -9.71383 | 121.12534 | 37959 ft | 454 kts | 288° |
| 2026-05-09 01:11 | -9.63143 | 120.88339 | 37968 ft | 455 kts | 288° |
| 2026-05-09 01:11 | -9.54907 | 120.64204 | 37972 ft | 455 kts | 288° |
| 2026-05-09 01:12 | -9.46589 | 120.39891 | 37969 ft | 457 kts | 287° |
| 2026-05-09 01:12 | -9.38235 | 120.15519 | 37966 ft | 458 kts | 287° |
| 2026-05-09 01:13 | -9.29837 | 119.91063 | 37959 ft | 459 kts | 287° |
| 2026-05-09 01:13 | -9.21473 | 119.66750 | 37960 ft | 460 kts | 287° |
| 2026-05-09 01:14 | -9.12999 | 119.42169 | 37956 ft | 462 kts | 287° |
| 2026-05-09 01:14 | -9.04501 | 119.17591 | 37952 ft | 463 kts | 287° |
| 2026-05-09 01:15 | -8.95967 | 118.92989 | 37959 ft | 464 kts | 287° |
| 2026-05-09 01:15 | -8.87390 | 118.68338 | 37961 ft | 465 kts | 287° |
| 2026-05-09 01:16 | -8.78779 | 118.43644 | 37956 ft | 467 kts | 287° |
| 2026-05-09 01:16 | -8.70177 | 118.19019 | 37951 ft | 467 kts | 287° |
| 2026-05-09 01:17 | -8.57129 | 117.81758 | 37947 ft | 469 kts | 287° |
| 2026-05-09 01:17 | -8.48430 | 117.56980 | 37941 ft | 470 kts | 287° |
| 2026-05-09 01:18 | -8.41950 | 117.31501 | 37939 ft | 468 kts | 278° |
| 2026-05-09 01:18 | -8.36678 | 117.05689 | 37932 ft | 469 kts | 278° |
| 2026-05-09 01:19 | -8.31405 | 116.79996 | 37937 ft | 470 kts | 279° |
| 2026-05-09 01:19 | -8.26078 | 116.54143 | 37946 ft | 470 kts | 279° |
| 2026-05-09 01:20 | -8.20728 | 116.28280 | 37944 ft | 470 kts | 279° |
| 2026-05-09 01:20 | -8.15358 | 116.02407 | 37934 ft | 470 kts | 279° |
| 2026-05-09 01:21 | -8.10049 | 115.76643 | 37928 ft | 470 kts | 279° |
| 2026-05-09 01:21 | -8.05635 | 115.55108 | 37928 ft | 471 kts | 280° |
| 2026-05-09 01:22 | -8.00302 | 115.29159 | 37939 ft | 471 kts | 279° |
| 2026-05-09 01:22 | -7.94960 | 115.03228 | 37931 ft | 472 kts | 279° |
| 2026-05-09 01:23 | -7.89633 | 114.77441 | 37927 ft | 472 kts | 279° |
| 2026-05-09 01:23 | -7.84248 | 114.51451 | 37927 ft | 472 kts | 280° |
| 2026-05-09 01:24 | -7.78842 | 114.25476 | 37928 ft | 472 kts | 280° |
| 2026-05-09 01:24 | -7.70147 | 114.00774 | 37922 ft | 480 kts | 301° |
| 2026-05-09 01:25 | -7.55643 | 113.78443 | 37892 ft | 478 kts | 302° |
| 2026-05-09 01:25 | -7.41051 | 113.56026 | 37876 ft | 478 kts | 302° |
| 2026-05-09 01:26 | -7.26403 | 113.33578 | 37890 ft | 479 kts | 302° |
| 2026-05-09 01:26 | -7.11719 | 113.11114 | 37884 ft | 480 kts | 302° |
| 2026-05-09 01:27 | -6.97077 | 112.88754 | 37885 ft | 480 kts | 302° |
| 2026-05-09 01:27 | -6.82337 | 112.66275 | 37893 ft | 480 kts | 302° |
| 2026-05-09 01:28 | -6.67576 | 112.43788 | 37886 ft | 480 kts | 303° |
| 2026-05-09 01:28 | -6.52973 | 112.21582 | 37908 ft | 476 kts | 303° |
| 2026-05-09 01:29 | -6.38382 | 111.99421 | 37907 ft | 472 kts | 303° |
| 2026-05-09 01:29 | -6.23927 | 111.77488 | 37909 ft | 469 kts | 304° |
| 2026-05-09 01:30 | -6.09467 | 111.55571 | 37916 ft | 470 kts | 304° |
| 2026-05-09 01:30 | -5.95088 | 111.33813 | 37917 ft | 469 kts | 305° |
| 2026-05-09 01:31 | -5.88155 | 111.22679 | 37918 ft | 472 kts | 289° |
| 2026-05-09 01:31 | -5.88709 | 111.09380 | 37919 ft | 483 kts | 266° |
| 2026-05-09 01:31 | -5.91680 | 110.82474 | 37910 ft | 485 kts | 266° |
| 2026-05-09 01:32 | -5.94652 | 110.55482 | 37923 ft | 487 kts | 265° |
| 2026-05-09 01:32 | -5.96434 | 110.28490 | 37924 ft | 486 kts | 273° |
| 2026-05-09 01:33 | -5.96457 | 110.01324 | 37924 ft | 486 kts | 272° |
| 2026-05-09 01:33 | -5.96454 | 109.74130 | 37924 ft | 487 kts | 272° |
| 2026-05-09 01:34 | -5.96431 | 109.46909 | 37932 ft | 487 kts | 272° |
| 2026-05-09 01:34 | -5.96391 | 109.19624 | 37928 ft | 488 kts | 272° |
| 2026-05-09 01:35 | -5.96388 | 108.98537 | 37934 ft | 488 kts | 272° |
| 2026-05-09 01:35 | -5.96337 | 108.91748 | 37930 ft | 488 kts | 272° |
| 2026-05-09 01:36 | -5.96075 | 108.84965 | 37931 ft | 482 kts | 287° |
| 2026-05-09 01:36 | -5.94771 | 108.81894 | 37972 ft | 477 kts | 307° |
| 2026-05-09 01:36 | -5.92554 | 108.79446 | 37957 ft | 473 kts | 322° |
| 2026-05-09 01:37 | -5.89869 | 108.77582 | 37932 ft | 468 kts | 335° |
| 2026-05-09 01:37 | -5.86862 | 108.76388 | 37944 ft | 464 kts | 345° |
| 2026-05-09 01:37 | -5.80655 | 108.74522 | 37926 ft | 465 kts | 342° |
| 2026-05-09 01:38 | -5.74629 | 108.72238 | 37929 ft | 465 kts | 343° |
| 2026-05-09 01:38 | -5.68440 | 108.70267 | 37930 ft | 465 kts | 343° |
| 2026-05-09 01:39 | -5.62364 | 108.68018 | 37926 ft | 464 kts | 343° |
| 2026-05-09 01:39 | -5.56264 | 108.66036 | 37930 ft | 464 kts | 343° |
| 2026-05-09 01:40 | -5.50182 | 108.63822 | 37928 ft | 464 kts | 343° |
| 2026-05-09 01:40 | -5.44055 | 108.61801 | 37925 ft | 464 kts | 343° |
| 2026-05-09 01:41 | -5.37965 | 108.59611 | 37925 ft | 464 kts | 343° |
| 2026-05-09 01:41 | -5.31855 | 108.57574 | 37927 ft | 464 kts | 343° |
| 2026-05-09 01:42 | -5.25760 | 108.55403 | 37929 ft | 464 kts | 343° |
| 2026-05-09 01:42 | -5.19635 | 108.53345 | 37931 ft | 464 kts | 343° |
| 2026-05-09 01:43 | -5.13542 | 108.51190 | 37930 ft | 464 kts | 343° |
| 2026-05-09 01:43 | -5.07427 | 108.49124 | 37928 ft | 464 kts | 343° |
| 2026-05-09 01:44 | -5.01371 | 108.46995 | 37926 ft | 464 kts | 343° |
| 2026-05-09 01:44 | -4.95241 | 108.44912 | 37925 ft | 465 kts | 343° |
| 2026-05-09 01:45 | -4.89124 | 108.42773 | 37934 ft | 465 kts | 343° |
| 2026-05-09 01:45 | -4.83002 | 108.40685 | 37929 ft | 465 kts | 343° |
| 2026-05-09 01:46 | -4.76877 | 108.38554 | 37925 ft | 465 kts | 343° |
| 2026-05-09 01:46 | -4.70785 | 108.36467 | 37934 ft | 465 kts | 343° |
| 2026-05-09 01:47 | -4.64648 | 108.34341 | 37935 ft | 465 kts | 343° |
| 2026-05-09 01:47 | -4.58537 | 108.32240 | 37937 ft | 466 kts | 343° |
| 2026-05-09 01:48 | -4.52399 | 108.30123 | 37928 ft | 466 kts | 343° |
| 2026-05-09 01:48 | -4.46259 | 108.28004 | 37928 ft | 467 kts | 343° |
| 2026-05-09 01:49 | -4.40166 | 108.25834 | 37921 ft | 468 kts | 336° |
| 2026-05-09 01:49 | -4.37430 | 108.24039 | 37967 ft | 474 kts | 321° |
| 2026-05-09 01:49 | -4.35202 | 108.21573 | 37943 ft | 480 kts | 306° |
| 2026-05-09 01:50 | -4.33656 | 108.18590 | 37947 ft | 485 kts | 291° |
| 2026-05-09 01:50 | -4.32928 | 108.15281 | 37942 ft | 489 kts | 275° |
| 2026-05-09 01:50 | -4.33082 | 108.11909 | 37940 ft | 493 kts | 259° |
| 2026-05-09 01:50 | -4.34129 | 108.08638 | 37940 ft | 496 kts | 244° |
| 2026-05-09 01:51 | -4.36009 | 108.05746 | 37938 ft | 498 kts | 228° |
| 2026-05-09 01:51 | -4.38595 | 108.03450 | 37936 ft | 498 kts | 212° |
| 2026-05-09 01:51 | -4.44712 | 108.00170 | 37925 ft | 499 kts | 207° |
| 2026-05-09 01:52 | -4.50857 | 107.96915 | 37938 ft | 499 kts | 207° |
| 2026-05-09 01:52 | -4.57023 | 107.93706 | 37931 ft | 499 kts | 207° |
| 2026-05-09 01:53 | -4.63078 | 107.90483 | 37102 ft | 496 kts | 207° |
| 2026-05-09 01:53 | -4.66158 | 107.88887 | 36214 ft | 500 kts | 207° |
| 2026-05-09 01:53 | -4.69247 | 107.87267 | 35465 ft | 501 kts | 207° |
| 2026-05-09 01:54 | -4.72329 | 107.85620 | 34750 ft | 502 kts | 207° |
| 2026-05-09 01:54 | -4.75413 | 107.83993 | 34209 ft | 498 kts | 207° |
| 2026-05-09 01:54 | -4.78483 | 107.82399 | 33763 ft | 493 kts | 207° |
| 2026-05-09 01:54 | -4.81517 | 107.80800 | 33263 ft | 489 kts | 207° |
| 2026-05-09 01:55 | -4.84520 | 107.79198 | 32664 ft | 491 kts | 207° |
| 2026-05-09 01:55 | -4.87559 | 107.77599 | 31899 ft | 494 kts | 206° |
| 2026-05-09 01:55 | -4.90566 | 107.76034 | 31203 ft | 491 kts | 206° |
| 2026-05-09 01:55 | -4.93569 | 107.74447 | 29906 ft | 482 kts | 207° |
| 2026-05-09 01:56 | -4.96474 | 107.72892 | 28207 ft | 471 kts | 207° |
| 2026-05-09 01:56 | -4.99429 | 107.71348 | 26000 ft | 482 kts | 206° |
| 2026-05-09 01:56 | -5.02390 | 107.69809 | 24703 ft | 470 kts | 207° |
| 2026-05-09 01:56 | -5.05186 | 107.68317 | 24209 ft | 449 kts | 207° |
| 2026-05-09 01:57 | -5.07878 | 107.66878 | 24195 ft | 431 kts | 207° |
| 2026-05-09 01:57 | -5.10513 | 107.65508 | 24018 ft | 419 kts | 206° |
| 2026-05-09 01:57 | -5.13064 | 107.64176 | 23957 ft | 407 kts | 207° |
| 2026-05-09 01:57 | -5.15538 | 107.62854 | 23924 ft | 399 kts | 207° |
| 2026-05-09 01:58 | -5.17950 | 107.61486 | 23914 ft | 397 kts | 214° |
| 2026-05-09 01:58 | -5.19897 | 107.59510 | 23943 ft | 403 kts | 234° |
| 2026-05-09 01:58 | -5.21184 | 107.56989 | 23944 ft | 407 kts | 247° |
| 2026-05-09 01:58 | -5.22193 | 107.54334 | 23921 ft | 408 kts | 248° |
| 2026-05-09 01:59 | -5.23227 | 107.51716 | 23920 ft | 408 kts | 246° |
| 2026-05-09 01:59 | -5.24289 | 107.49078 | 23916 ft | 408 kts | 247° |
| 2026-05-09 01:59 | -5.25311 | 107.46419 | 23922 ft | 408 kts | 248° |
| 2026-05-09 01:59 | -5.26333 | 107.43761 | 23930 ft | 408 kts | 247° |
| 2026-05-09 02:00 | -5.27390 | 107.41130 | 23751 ft | 403 kts | 246° |
| 2026-05-09 02:00 | -5.28437 | 107.38509 | 23215 ft | 405 kts | 247° |
| 2026-05-09 02:00 | -5.29451 | 107.35875 | 22834 ft | 402 kts | 248° |
| 2026-05-09 02:00 | -5.30452 | 107.33305 | 22424 ft | 399 kts | 247° |
| 2026-05-09 02:01 | -5.31489 | 107.30718 | 22006 ft | 397 kts | 246° |
| 2026-05-09 02:01 | -5.32502 | 107.28146 | 21601 ft | 395 kts | 247° |
| 2026-05-09 02:01 | -5.33492 | 107.25582 | 21200 ft | 393 kts | 247° |
| 2026-05-09 02:01 | -5.34494 | 107.23036 | 20822 ft | 391 kts | 246° |
| 2026-05-09 02:02 | -5.35526 | 107.20517 | 20426 ft | 388 kts | 243° |
| 2026-05-09 02:02 | -5.37053 | 107.18324 | 19975 ft | 384 kts | 221° |
| 2026-05-09 02:02 | -5.39198 | 107.16795 | 19676 ft | 376 kts | 206° |
| 2026-05-09 02:02 | -5.41682 | 107.16009 | 19241 ft | 374 kts | 187° |
| 2026-05-09 02:03 | -5.44263 | 107.16009 | 18881 ft | 371 kts | 169° |
| 2026-05-09 02:03 | -5.46699 | 107.16809 | 18514 ft | 369 kts | 153° |
| 2026-05-09 02:03 | -5.48739 | 107.18285 | 18170 ft | 367 kts | 136° |
| 2026-05-09 02:03 | -5.50256 | 107.20325 | 17828 ft | 363 kts | 117° |
| 2026-05-09 02:04 | -5.51085 | 107.22664 | 17917 ft | 356 kts | 102° |
| 2026-05-09 02:04 | -5.51184 | 107.25188 | 17949 ft | 368 kts | 85° |
| 2026-05-09 02:04 | -5.50516 | 107.27673 | 17937 ft | 367 kts | 69° |
| 2026-05-09 02:04 | -5.49523 | 107.30047 | 17933 ft | 376 kts | 69° |
| 2026-05-09 02:05 | -5.48613 | 107.32497 | 17909 ft | 372 kts | 71° |
| 2026-05-09 02:05 | -5.47715 | 107.34915 | 17933 ft | 370 kts | 70° |
| 2026-05-09 02:05 | -5.46716 | 107.37309 | 17945 ft | 371 kts | 68° |
| 2026-05-09 02:05 | -5.45515 | 107.39603 | 17930 ft | 372 kts | 54° |
| 2026-05-09 02:06 | -5.43661 | 107.41388 | 17935 ft | 377 kts | 36° |
| 2026-05-09 02:06 | -5.41290 | 107.42553 | 17932 ft | 378 kts | 18° |
| 2026-05-09 02:06 | -5.38683 | 107.42918 | 17925 ft | 380 kts | 359° |